Station Historical Data
Daily Summary for January 15, 2012 Units:  English    Metric   Both
« Previous Day
Next Day »
Daily Weekly Monthly Yearly Custom
  High: Low: Average:
Temperature: 49.3 °F 26.0 °F 37.6 °F
Dew Point: 29.6 °F 22.2 °F 25.8 °F
Humidity: 87% 42% 64%
Wind Speed: 9.0mph 0.0mph 3.4mph
Wind Gust: 11.0mph - -
Wind- - SSE
Pressure: 30.51 in 30.28 in -
Precipitation: 0.00 in    
Historical Graphs
 
 
Tabular Data for January 15, 2012
Time Temperature Dew Point Pressure Wind Wind Speed Wind Gust Humidity Rainfall Rate (Hourly) Conditions
00:00 37.2 °F 27.6 °F 30.28 in NW 3.0 mph 4.0 mph 68% 0.00 in
00:01 37.2 °F 27.6 °F 30.28 in WNW 2.0 mph 3.0 mph 68% 0.00 in
00:06 37.1 °F 27.5 °F 30.28 in WNW 3.0 mph 4.0 mph 68% 0.00 in
00:11 37.0 °F 27.4 °F 30.29 in NNW 3.0 mph 4.0 mph 68% 0.00 in
00:16 36.7 °F 27.5 °F 30.29 in WNW 3.0 mph 3.0 mph 69% 0.00 in
00:21 36.6 °F 27.4 °F 30.29 in NW 2.0 mph 4.0 mph 69% 0.00 in
00:26 36.3 °F 27.5 °F 30.29 in WNW 4.0 mph 5.0 mph 70% 0.00 in
00:31 36.4 °F 27.6 °F 30.30 in WNW 1.0 mph 5.0 mph 70% 0.00 in
00:36 36.3 °F 27.5 °F 30.30 in WNW 3.0 mph 4.0 mph 70% 0.00 in
00:41 36.3 °F 27.5 °F 30.30 in WNW 4.0 mph 4.0 mph 70% 0.00 in
00:46 36.1 °F 27.3 °F 30.30 in NW 2.0 mph 5.0 mph 70% 0.00 in
00:51 35.9 °F 27.4 °F 30.30 in WNW 2.0 mph 5.0 mph 71% 0.00 in
00:56 35.6 °F 27.1 °F 30.30 in NW 2.0 mph 3.0 mph 71% 0.00 in
01:01 35.5 °F 27.4 °F 30.30 in NW 2.0 mph 5.0 mph 72% 0.00 in
01:06 35.5 °F 27.4 °F 30.30 in NW 2.0 mph 2.0 mph 72% 0.00 in
01:11 35.3 °F 27.2 °F 30.30 in NW 2.0 mph 4.0 mph 72% 0.00 in
01:16 34.9 °F 27.1 °F 30.30 in NW 2.0 mph 3.0 mph 73% 0.00 in
01:21 34.9 °F 27.1 °F 30.30 in NW 2.0 mph 3.0 mph 73% 0.00 in
01:26 34.7 °F 27.0 °F 30.31 in NW 2.0 mph 3.0 mph 73% 0.00 in
01:31 34.4 °F 27.0 °F 30.31 in NW 1.0 mph 2.0 mph 74% 0.00 in
01:36 34.1 °F 26.7 °F 30.31 in Calm     74% 0.00 in
01:41 33.6 °F 26.5 °F 30.32 in Calm     75% 0.00 in
01:46 33.2 °F 26.8 °F 30.32 in Calm     77% 0.00 in
01:51 33.1 °F 26.7 °F 30.32 in Calm     77% 0.00 in
01:56 32.5 °F 26.4 °F 30.33 in Calm     78% 0.00 in
02:01 32.2 °F 26.4 °F 30.33 in Calm     79% 0.00 in
02:06 32.5 °F 26.7 °F 30.33 in NW 3.0 mph 4.0 mph 79% 0.00 in
02:11 32.6 °F 25.9 °F 30.33 in NW 3.0 mph 4.0 mph 76% 0.00 in
02:16 32.5 °F 25.8 °F 30.33 in NW 2.0 mph 3.0 mph 76% 0.00 in
02:21 32.3 °F 25.6 °F 30.33 in NW 1.0 mph 3.0 mph 76% 0.00 in
02:26 32.2 °F 25.5 °F 30.33 in NW 4.0 mph 6.0 mph 76% 0.00 in
02:31 32.1 °F 25.4 °F 30.33 in NW 3.0 mph 3.0 mph 76% 0.00 in
02:36 32.3 °F 25.3 °F 30.33 in NW 6.0 mph 6.0 mph 75% 0.00 in
02:41 32.6 °F 25.2 °F 30.34 in NW 1.0 mph 4.0 mph 74% 0.00 in
02:46 32.4 °F 25.0 °F 30.34 in WNW 3.0 mph 4.0 mph 74% 0.00 in
02:51 32.3 °F 25.0 °F 30.34 in WNW 3.0 mph 3.0 mph 74% 0.00 in
02:57 32.2 °F 24.9 °F 30.34 in WNW 2.0 mph 3.0 mph 74% 0.00 in
03:02 32.1 °F 24.8 °F 30.35 in West 2.0 mph 2.0 mph 74% 0.00 in
03:07 31.9 °F 24.9 °F 30.35 in WNW 2.0 mph 3.0 mph 75% 0.00 in
03:11 31.7 °F 24.7 °F 30.35 in WSW 1.0 mph 3.0 mph 75% 0.00 in
03:16 31.4 °F 24.7 °F 30.35 in WNW 2.0 mph 2.0 mph 76% 0.00 in
03:21 31.4 °F 24.7 °F 30.36 in WNW 1.0 mph 2.0 mph 76% 0.00 in
03:27 31.5 °F 24.5 °F 30.36 in NW 2.0 mph 4.0 mph 75% 0.00 in
03:32 31.4 °F 24.4 °F 30.36 in NNW 2.0 mph 3.0 mph 75% 0.00 in
03:37 31.3 °F 24.3 °F 30.36 in NNW 2.0 mph 3.0 mph 75% 0.00 in
03:42 31.1 °F 24.1 °F 30.36 in North 3.0 mph 4.0 mph 75% 0.00 in
03:47 30.8 °F 23.8 °F 30.36 in NNW 4.0 mph 4.0 mph 75% 0.00 in
03:52 30.6 °F 24.0 °F 30.36 in North 4.0 mph 5.0 mph 76% 0.00 in
03:57 30.5 °F 23.9 °F 30.36 in NNW 3.0 mph 4.0 mph 76% 0.00 in
04:02 30.4 °F 23.8 °F 30.36 in North 3.0 mph 6.0 mph 76% 0.00 in
04:07 30.4 °F 23.8 °F 30.37 in NNW 4.0 mph 4.0 mph 76% 0.00 in
04:12 30.4 °F 23.8 °F 30.37 in North 3.0 mph 4.0 mph 76% 0.00 in
04:17 30.2 °F 23.6 °F 30.37 in North 3.0 mph 4.0 mph 76% 0.00 in
04:22 29.9 °F 23.3 °F 30.37 in North 3.0 mph 3.0 mph 76% 0.00 in
04:27 29.7 °F 23.4 °F 30.37 in North 4.0 mph 5.0 mph 77% 0.00 in
04:32 29.6 °F 23.3 °F 30.37 in NNW 4.0 mph 4.0 mph 77% 0.00 in
04:37 29.4 °F 23.1 °F 30.37 in NNW 3.0 mph 5.0 mph 77% 0.00 in
04:42 29.2 °F 22.9 °F 30.37 in NNE 3.0 mph 5.0 mph 77% 0.00 in
04:47 29.0 °F 23.0 °F 30.37 in NNW 3.0 mph 4.0 mph 78% 0.00 in
04:52 29.0 °F 23.0 °F 30.37 in North 3.0 mph 4.0 mph 78% 0.00 in
04:57 28.8 °F 22.8 °F 30.37 in NNW 3.0 mph 4.0 mph 78% 0.00 in
05:02 28.6 °F 22.6 °F 30.37 in NNW 2.0 mph 4.0 mph 78% 0.00 in
05:07 28.6 °F 22.6 °F 30.37 in North 5.0 mph 5.0 mph 78% 0.00 in
05:12 28.5 °F 22.8 °F 30.37 in NNW 5.0 mph 6.0 mph 79% 0.00 in
05:17 28.5 °F 22.8 °F 30.37 in NNW 3.0 mph 5.0 mph 79% 0.00 in
05:22 28.5 °F 23.1 °F 30.37 in North 3.0 mph 4.0 mph 80% 0.00 in
05:27 28.4 °F 23.0 °F 30.37 in NNE 5.0 mph 5.0 mph 80% 0.00 in
05:32 28.6 °F 22.9 °F 30.37 in NNE 4.0 mph 5.0 mph 79% 0.00 in
05:37 28.5 °F 23.1 °F 30.37 in NNE 4.0 mph 5.0 mph 80% 0.00 in
05:42 28.5 °F 23.1 °F 30.37 in North 3.0 mph 6.0 mph 80% 0.00 in
05:47 28.5 °F 23.1 °F 30.38 in NNW 3.0 mph 5.0 mph 80% 0.00 in
05:52 28.5 °F 23.1 °F 30.38 in Calm   4.0 mph 80% 0.00 in
05:57 28.4 °F 23.3 °F 30.39 in NE 2.0 mph 2.0 mph 81% 0.00 in
06:02 28.3 °F 23.2 °F 30.39 in NE 1.0 mph 2.0 mph 81% 0.00 in
06:07 28.1 °F 23.0 °F 30.39 in NNE 2.0 mph 2.0 mph 81% 0.00 in
06:12 28.0 °F 22.9 °F 30.40 in Calm   1.0 mph 81% 0.00 in
06:17 27.6 °F 22.8 °F 30.40 in Calm     82% 0.00 in
06:22 27.4 °F 22.9 °F 30.41 in Calm     83% 0.00 in
06:27 27.3 °F 23.1 °F 30.41 in NNE 2.0 mph 2.0 mph 84% 0.00 in
06:32 27.0 °F 22.5 °F 30.42 in Calm   1.0 mph 83% 0.00 in
06:37 26.5 °F 22.3 °F 30.42 in Calm     84% 0.00 in
06:42 26.1 °F 22.2 °F 30.42 in Calm     85% 0.00 in
06:48 26.0 °F 22.4 °F 30.42 in SSW 1.0 mph 1.0 mph 86% 0.00 in
06:53 26.0 °F 22.4 °F 30.42 in Calm   1.0 mph 86% 0.00 in
06:58 26.1 °F 22.8 °F 30.42 in Calm     87% 0.00 in
07:03 26.5 °F 22.9 °F 30.42 in NE 1.0 mph 2.0 mph 86% 0.00 in
07:08 26.9 °F 22.7 °F 30.42 in NNE 1.0 mph 2.0 mph 84% 0.00 in
07:13 27.3 °F 22.8 °F 30.42 in NNE 2.0 mph 3.0 mph 83% 0.00 in
07:18 27.3 °F 22.8 °F 30.42 in NNE 2.0 mph 3.0 mph 83% 0.00 in
07:23 27.0 °F 22.5 °F 30.42 in Calm   2.0 mph 83% 0.00 in
07:28 26.8 °F 22.6 °F 30.42 in NNE 2.0 mph 3.0 mph 84% 0.00 in
07:33 27.0 °F 22.8 °F 30.42 in NNE 2.0 mph 3.0 mph 84% 0.00 in
07:38 27.0 °F 22.8 °F 30.43 in NNE 2.0 mph 2.0 mph 84% 0.00 in
07:43 27.0 °F 22.5 °F 30.43 in NE 2.0 mph 2.0 mph 83% 0.00 in
07:48 26.8 °F 22.6 °F 30.43 in NNE 2.0 mph 3.0 mph 84% 0.00 in
07:53 26.7 °F 22.5 °F 30.44 in NE 1.0 mph 3.0 mph 84% 0.00 in
07:58 26.7 °F 22.5 °F 30.43 in NE 1.0 mph 3.0 mph 84% 0.00 in
08:03 26.6 °F 22.4 °F 30.44 in Calm   2.0 mph 84% 0.00 in
08:08 26.9 °F 22.7 °F 30.44 in NNE 2.0 mph 4.0 mph 84% 0.00 in
08:13 27.1 °F 22.6 °F 30.44 in NE 2.0 mph 3.0 mph 83% 0.00 in
08:18 27.3 °F 22.8 °F 30.45 in NNE 1.0 mph 3.0 mph 83% 0.00 in
08:23 27.5 °F 22.7 °F 30.45 in NE 2.0 mph 2.0 mph 82% 0.00 in
08:28 27.7 °F 22.6 °F 30.45 in NNE 3.0 mph 3.0 mph 81% 0.00 in
08:34 27.9 °F 22.8 °F 30.45 in NNE 3.0 mph 3.0 mph 81% 0.00 in
08:39 28.0 °F 22.9 °F 30.45 in NNE 2.0 mph 3.0 mph 81% 0.00 in
08:44 28.1 °F 23.0 °F 30.46 in NE 3.0 mph 3.0 mph 81% 0.00 in
08:49 28.4 °F 23.3 °F 30.46 in NNE 1.0 mph 4.0 mph 81% 0.00 in
08:54 28.8 °F 23.4 °F 30.46 in NE 3.0 mph 3.0 mph 80% 0.00 in
08:59 29.2 °F 23.8 °F 30.46 in NNE 3.0 mph 4.0 mph 80% 0.00 in
09:04 29.6 °F 23.9 °F 30.46 in NE 2.0 mph 5.0 mph 79% 0.00 in
09:09 30.0 °F 24.0 °F 30.46 in NNE 4.0 mph 6.0 mph 78% 0.00 in
09:14 30.1 °F 23.8 °F 30.46 in NE 7.0 mph 11.0 mph 77% 0.00 in
09:19 30.3 °F 24.0 °F 30.46 in NNE 8.0 mph 9.0 mph 77% 0.00 in
09:24 30.5 °F 23.9 °F 30.46 in NNE 4.0 mph 7.0 mph 76% 0.00 in
09:29 30.8 °F 23.8 °F 30.46 in NE 6.0 mph 7.0 mph 75% 0.00 in
09:34 31.0 °F 24.0 °F 30.47 in NE 4.0 mph 8.0 mph 75% 0.00 in
09:39 31.3 °F 23.7 °F 30.47 in ENE 4.0 mph 8.0 mph 73% 0.00 in
09:44 31.5 °F 23.9 °F 30.48 in ENE 2.0 mph 7.0 mph 73% 0.00 in
09:49 32.0 °F 24.3 °F 30.48 in East 5.0 mph 6.0 mph 73% 0.00 in
09:54 32.2 °F 23.9 °F 30.48 in East 3.0 mph 8.0 mph 71% 0.00 in
09:59 32.5 °F 24.2 °F 30.48 in East 5.0 mph 7.0 mph 71% 0.00 in
10:04 32.8 °F 24.1 °F 30.48 in East 6.0 mph 10.0 mph 70% 0.00 in
10:09 32.9 °F 24.2 °F 30.48 in ENE 4.0 mph 6.0 mph 70% 0.00 in
10:14 33.1 °F 24.4 °F 30.49 in East 4.0 mph 5.0 mph 70% 0.00 in
10:19 33.8 °F 25.7 °F 30.49 in SSE 2.0 mph 4.0 mph 72% 0.00 in
10:24 34.1 °F 25.0 °F 30.49 in East 4.0 mph 5.0 mph 69% 0.00 in
10:29 34.0 °F 23.9 °F 30.49 in East 4.0 mph 8.0 mph 66% 0.00 in
10:34 34.2 °F 24.8 °F 30.50 in ENE 6.0 mph 6.0 mph 68% 0.00 in
10:39 34.6 °F 24.8 °F 30.50 in East 5.0 mph 6.0 mph 67% 0.00 in
10:44 35.0 °F 25.2 °F 30.50 in ESE 4.0 mph 4.0 mph 67% 0.00 in
10:50 35.4 °F 24.8 °F 30.51 in SE 4.0 mph 6.0 mph 65% 0.00 in
10:55 35.5 °F 24.5 °F 30.50 in East 3.0 mph 5.0 mph 64% 0.00 in
11:00 35.9 °F 24.9 °F 30.50 in ENE 6.0 mph 6.0 mph 64% 0.00 in
11:05 36.1 °F 25.1 °F 30.50 in ESE 5.0 mph 6.0 mph 64% 0.00 in
11:10 36.4 °F 25.0 °F 30.50 in South 4.0 mph 7.0 mph 63% 0.00 in
11:15 36.9 °F 25.1 °F 30.50 in ENE 4.0 mph 8.0 mph 62% 0.00 in
11:20 37.0 °F 25.2 °F 30.50 in East 6.0 mph 9.0 mph 62% 0.00 in
11:25 37.0 °F 24.8 °F 30.50 in SE 3.0 mph 5.0 mph 61% 0.00 in
11:30 37.4 °F 25.2 °F 30.50 in East 6.0 mph 8.0 mph 61% 0.00 in
11:35 37.8 °F 25.6 °F 30.49 in East 4.0 mph 5.0 mph 61% 0.00 in
11:40 38.2 °F 25.1 °F 30.49 in ESE 8.0 mph 8.0 mph 59% 0.00 in
11:45 38.2 °F 25.1 °F 30.49 in SE 4.0 mph 5.0 mph 59% 0.00 in
11:50 38.6 °F 26.3 °F 30.49 in SE 3.0 mph 5.0 mph 61% 0.00 in
11:55 39.1 °F 26.8 °F 30.49 in East 3.0 mph 6.0 mph 61% 0.00 in
12:00 39.0 °F 25.5 °F 30.48 in South 1.0 mph 5.0 mph 58% 0.00 in
12:06 39.4 °F 25.9 °F 30.48 in SE 6.0 mph 8.0 mph 58% 0.00 in
12:11 39.7 °F 26.1 °F 30.47 in SSE 5.0 mph 8.0 mph 58% 0.00 in
12:16 39.9 °F 27.2 °F 30.47 in SSE 4.0 mph 6.0 mph 60% 0.00 in
12:21 40.4 °F 26.4 °F 30.47 in South 4.0 mph 5.0 mph 57% 0.00 in
12:26 40.9 °F 26.9 °F 30.47 in South 4.0 mph 6.0 mph 57% 0.00 in
12:31 41.3 °F 26.8 °F 30.46 in SE 5.0 mph 6.0 mph 56% 0.00 in
12:37 41.7 °F 27.2 °F 30.46 in South 4.0 mph 5.0 mph 56% 0.00 in
12:42 42.0 °F 27.0 °F 30.45 in East 2.0 mph 5.0 mph 55% 0.00 in
12:47 41.6 °F 26.2 °F 30.45 in SE 2.0 mph 7.0 mph 54% 0.00 in
12:52 42.0 °F 27.0 °F 30.45 in WSW 4.0 mph 8.0 mph 55% 0.00 in
12:57 42.4 °F 27.4 °F 30.45 in SSE 4.0 mph 8.0 mph 55% 0.00 in
13:02 42.6 °F 27.1 °F 30.45 in SSW 7.0 mph 7.0 mph 54% 0.00 in
13:07 43.1 °F 28.5 °F 30.45 in SSE 7.0 mph 8.0 mph 56% 0.00 in
13:12 43.3 °F 28.2 °F 30.45 in ESE 5.0 mph 8.0 mph 55% 0.00 in
13:17 43.2 °F 27.7 °F 30.45 in SSE 3.0 mph 6.0 mph 54% 0.00 in
13:22 43.4 °F 28.3 °F 30.45 in SSE 7.0 mph 8.0 mph 55% 0.00 in
13:27 43.5 °F 28.0 °F 30.44 in SE 5.0 mph 7.0 mph 54% 0.00 in
13:32 43.7 °F 28.6 °F 30.44 in East 4.0 mph 4.0 mph 55% 0.00 in
13:37 43.8 °F 27.3 °F 30.43 in SE 6.0 mph 8.0 mph 52% 0.00 in
13:42 43.9 °F 27.9 °F 30.43 in ESE 4.0 mph 8.0 mph 53% 0.00 in
13:48 44.5 °F 28.0 °F 30.43 in SSE 5.0 mph 8.0 mph 52% 0.00 in
13:53 44.8 °F 27.3 °F 30.43 in East 4.0 mph 7.0 mph 50% 0.00 in
13:58 44.8 °F 27.8 °F 30.42 in SSE 5.0 mph 8.0 mph 51% 0.00 in
14:03 45.2 °F 28.6 °F 30.42 in SE 2.0 mph 7.0 mph 52% 0.00 in
14:08 45.5 °F 28.0 °F 30.42 in South 7.0 mph 9.0 mph 50% 0.00 in
14:13 45.9 °F 28.3 °F 30.42 in SSE 5.0 mph 8.0 mph 50% 0.00 in
14:18 46.0 °F 28.9 °F 30.42 in ESE 3.0 mph 7.0 mph 51% 0.00 in
14:23 46.7 °F 29.5 °F 30.41 in SE 8.0 mph 8.0 mph 51% 0.00 in
14:28 46.5 °F 28.9 °F 30.41 in East 4.0 mph 8.0 mph 50% 0.00 in
14:33 46.7 °F 27.6 °F 30.41 in ESE 6.0 mph 8.0 mph 47% 0.00 in
14:38 46.8 °F 28.2 °F 30.41 in SE 2.0 mph 7.0 mph 48% 0.00 in
14:43 47.0 °F 29.3 °F 30.41 in East 2.0 mph 7.0 mph 50% 0.00 in
14:48 47.4 °F 28.7 °F 30.41 in SE 5.0 mph 7.0 mph 48% 0.00 in
14:53 47.6 °F 27.9 °F 30.41 in ESE 6.0 mph 9.0 mph 46% 0.00 in
14:58 47.7 °F 28.5 °F 30.40 in SSE 5.0 mph 5.0 mph 47% 0.00 in
15:03 48.3 °F 27.4 °F 30.40 in SSE 8.0 mph 8.0 mph 44% 0.00 in
15:08 48.5 °F 29.2 °F 30.40 in SE 4.0 mph 6.0 mph 47% 0.00 in
15:13 48.9 °F 29.6 °F 30.40 in SSE 4.0 mph 6.0 mph 47% 0.00 in
15:18 48.4 °F 27.5 °F 30.40 in ESE 4.0 mph 8.0 mph 44% 0.00 in
15:23 48.3 °F 26.3 °F 30.40 in SSW 6.0 mph 10.0 mph 42% 0.00 in
15:28 48.5 °F 27.0 °F 30.40 in SE 5.0 mph 7.0 mph 43% 0.00 in
15:34 48.7 °F 27.2 °F 30.40 in ESE 4.0 mph 6.0 mph 43% 0.00 in
15:39 48.7 °F 26.6 °F 30.40 in ESE 6.0 mph 8.0 mph 42% 0.00 in
15:44 48.8 °F 27.3 °F 30.40 in SE 6.0 mph 9.0 mph 43% 0.00 in
15:49 48.9 °F 26.8 °F 30.40 in SE 7.0 mph 9.0 mph 42% 0.00 in
15:54 48.8 °F 27.3 °F 30.40 in ESE 5.0 mph 9.0 mph 43% 0.00 in
15:59 48.7 °F 27.2 °F 30.40 in ESE 6.0 mph 9.0 mph 43% 0.00 in
16:05 48.8 °F 27.3 °F 30.40 in SE 6.0 mph 7.0 mph 43% 0.00 in
16:10 49.0 °F 28.0 °F 30.40 in SSE 7.0 mph 10.0 mph 44% 0.00 in
16:15 48.8 °F 26.7 °F 30.40 in ESE 9.0 mph 9.0 mph 42% 0.00 in
16:20 49.0 °F 27.5 °F 30.40 in SSE 7.0 mph 10.0 mph 43% 0.00 in
16:25 49.0 °F 28.0 °F 30.40 in ESE 4.0 mph 7.0 mph 44% 0.00 in
16:30 49.2 °F 28.2 °F 30.40 in SE 4.0 mph 7.0 mph 44% 0.00 in
16:35 49.2 °F 28.8 °F 30.39 in SE 6.0 mph 8.0 mph 45% 0.00 in
16:40 49.3 °F 28.3 °F 30.39 in SE 6.0 mph 7.0 mph 44% 0.00 in
16:45 49.3 °F 28.3 °F 30.39 in SE 5.0 mph 7.0 mph 44% 0.00 in
16:50 49.2 °F 28.8 °F 30.39 in SE 5.0 mph 6.0 mph 45% 0.00 in
16:55 49.1 °F 27.6 °F 30.39 in SE 6.0 mph 8.0 mph 43% 0.00 in
17:00 49.0 °F 28.0 °F 30.39 in SE 7.0 mph 8.0 mph 44% 0.00 in
17:05 48.9 °F 28.5 °F 30.39 in SE 4.0 mph 7.0 mph 45% 0.00 in
17:10 48.7 °F 27.8 °F 30.39 in SE 4.0 mph 6.0 mph 44% 0.00 in
17:15 48.3 °F 27.4 °F 30.39 in SE 5.0 mph 8.0 mph 44% 0.00 in
17:21 47.9 °F 27.0 °F 30.39 in SSE 4.0 mph 7.0 mph 44% 0.00 in
17:26 47.4 °F 26.0 °F 30.39 in ESE 6.0 mph 6.0 mph 43% 0.00 in
17:31 47.0 °F 26.2 °F 30.39 in SSE 3.0 mph 6.0 mph 44% 0.00 in
17:36 46.4 °F 26.2 °F 30.39 in SE 3.0 mph 5.0 mph 45% 0.00 in
17:41 45.8 °F 26.2 °F 30.39 in SE 3.0 mph 5.0 mph 46% 0.00 in
17:46 45.3 °F 26.3 °F 30.39 in ESE 3.0 mph 5.0 mph 47% 0.00 in
17:51 44.9 °F 25.9 °F 30.38 in ESE 4.0 mph 5.0 mph 47% 0.00 in
17:56 44.6 °F 26.1 °F 30.38 in ESE 3.0 mph 4.0 mph 48% 0.00 in
18:01 44.4 °F 26.0 °F 30.38 in ESE 3.0 mph 6.0 mph 48% 0.00 in
18:06 43.8 °F 25.9 °F 30.38 in ESE 2.0 mph 3.0 mph 49% 0.00 in
18:11 43.5 °F 26.1 °F 30.38 in ESE 3.0 mph 3.0 mph 50% 0.00 in
18:16 43.5 °F 26.1 °F 30.38 in ESE 1.0 mph 2.0 mph 50% 0.00 in
18:21 43.3 °F 25.9 °F 30.39 in SE 1.0 mph 2.0 mph 50% 0.00 in
18:26 42.9 °F 26.0 °F 30.38 in Calm   1.0 mph 51% 0.00 in
18:31 42.4 °F 26.0 °F 30.39 in Calm   1.0 mph 52% 0.00 in
18:37 42.3 °F 25.9 °F 30.38 in ESE 2.0 mph 2.0 mph 52% 0.00 in
18:42 42.5 °F 26.1 °F 30.38 in ESE 2.0 mph 3.0 mph 52% 0.00 in
18:47 42.5 °F 26.1 °F 30.38 in ESE 2.0 mph 3.0 mph 52% 0.00 in
18:52 42.6 °F 26.2 °F 30.38 in ESE 3.0 mph 4.0 mph 52% 0.00 in
18:57 42.5 °F 26.6 °F 30.37 in ESE 2.0 mph 4.0 mph 53% 0.00 in
19:02 42.4 °F 26.5 °F 30.38 in East 3.0 mph 3.0 mph 53% 0.00 in
19:07 42.0 °F 26.6 °F 30.38 in ESE 2.0 mph 2.0 mph 54% 0.00 in
19:12 41.7 °F 26.7 °F 30.38 in ESE 2.0 mph 2.0 mph 55% 0.00 in
19:17 41.2 °F 26.7 °F 30.38 in SE 1.0 mph 1.0 mph 56% 0.00 in
19:22 41.1 °F 26.6 °F 30.38 in SE 1.0 mph 2.0 mph 56% 0.00 in
19:27 41.3 °F 26.8 °F 30.38 in ESE 3.0 mph 4.0 mph 56% 0.00 in
19:32 41.6 °F 27.1 °F 30.38 in ESE 3.0 mph 5.0 mph 56% 0.00 in
19:37 41.6 °F 27.1 °F 30.37 in ESE 3.0 mph 4.0 mph 56% 0.00 in
19:42 41.6 °F 27.1 °F 30.37 in ESE 3.0 mph 5.0 mph 56% 0.00 in
19:47 41.8 °F 27.3 °F 30.37 in East 3.0 mph 5.0 mph 56% 0.00 in
19:52 41.5 °F 27.0 °F 30.37 in ESE 3.0 mph 4.0 mph 56% 0.00 in
19:57 41.4 °F 27.3 °F 30.38 in SE 2.0 mph 3.0 mph 57% 0.00 in
20:02 41.4 °F 27.3 °F 30.38 in SSE 3.0 mph 4.0 mph 57% 0.00 in
20:07 41.7 °F 27.6 °F 30.38 in SE 3.0 mph 4.0 mph 57% 0.00 in
20:12 42.0 °F 27.5 °F 30.38 in ESE 5.0 mph 6.0 mph 56% 0.00 in
20:17 42.4 °F 27.4 °F 30.38 in ESE 4.0 mph 6.0 mph 55% 0.00 in
20:22 42.6 °F 27.6 °F 30.38 in ESE 4.0 mph 4.0 mph 55% 0.00 in
20:27 42.4 °F 27.4 °F 30.38 in ESE 3.0 mph 5.0 mph 55% 0.00 in
20:33 42.4 °F 27.4 °F 30.38 in SE 3.0 mph 5.0 mph 55% 0.00 in
20:38 42.3 °F 27.3 °F 30.38 in SSE 3.0 mph 5.0 mph 55% 0.00 in
20:43 42.0 °F 27.5 °F 30.38 in ESE 5.0 mph 5.0 mph 56% 0.00 in
20:48 42.5 °F 27.5 °F 30.38 in ESE 4.0 mph 6.0 mph 55% 0.00 in
20:53 42.5 °F 27.9 °F 30.38 in SE 5.0 mph 6.0 mph 56% 0.00 in
20:58 42.6 °F 27.6 °F 30.38 in SE 4.0 mph 7.0 mph 55% 0.00 in
21:03 42.8 °F 27.8 °F 30.38 in SE 3.0 mph 6.0 mph 55% 0.00 in
21:08 42.7 °F 27.7 °F 30.38 in SE 4.0 mph 5.0 mph 55% 0.00 in
21:13 42.8 °F 27.3 °F 30.37 in ESE 4.0 mph 6.0 mph 54% 0.00 in
21:18 42.7 °F 27.2 °F 30.37 in SE 4.0 mph 6.0 mph 54% 0.00 in
21:23 42.7 °F 27.2 °F 30.37 in SE 3.0 mph 5.0 mph 54% 0.00 in
21:28 42.3 °F 27.3 °F 30.38 in SE 5.0 mph 5.0 mph 55% 0.00 in
21:33 42.3 °F 27.3 °F 30.38 in SSE 3.0 mph 6.0 mph 55% 0.00 in
21:39 42.3 °F 27.3 °F 30.38 in SSE 5.0 mph 6.0 mph 55% 0.00 in
21:44 42.7 °F 27.2 °F 30.38 in SE 4.0 mph 6.0 mph 54% 0.00 in
21:49 42.9 °F 27.4 °F 30.38 in SE 4.0 mph 7.0 mph 54% 0.00 in
21:54 42.8 °F 27.3 °F 30.38 in SE 6.0 mph 6.0 mph 54% 0.00 in
22:00 42.8 °F 27.3 °F 30.38 in SE 4.0 mph 6.0 mph 54% 0.00 in
22:05 42.9 °F 27.0 °F 30.37 in ESE 5.0 mph 6.0 mph 53% 0.00 in
22:10 43.1 °F 27.1 °F 30.37 in SE 5.0 mph 7.0 mph 53% 0.00 in
22:15 43.1 °F 27.1 °F 30.37 in SE 5.0 mph 6.0 mph 53% 0.00 in
22:20 43.0 °F 27.0 °F 30.37 in SE 4.0 mph 8.0 mph 53% 0.00 in
22:25 42.4 °F 27.4 °F 30.37 in SE 4.0 mph 6.0 mph 55% 0.00 in
22:30 42.1 °F 27.5 °F 30.37 in SE 4.0 mph 7.0 mph 56% 0.00 in
22:35 42.0 °F 27.5 °F 30.37 in SE 3.0 mph 6.0 mph 56% 0.00 in
22:40 42.0 °F 27.5 °F 30.37 in SE 3.0 mph 5.0 mph 56% 0.00 in
22:45 41.8 °F 27.3 °F 30.37 in SSE 4.0 mph 7.0 mph 56% 0.00 in
22:50 41.9 °F 27.4 °F 30.37 in SE 4.0 mph 6.0 mph 56% 0.00 in
22:55 42.0 °F 27.5 °F 30.37 in SE 4.0 mph 7.0 mph 56% 0.00 in
22:57 42.0 °F 27.5 °F 30.37 in ESE 5.0 mph 7.0 mph 56% 0.00 in
Compliments of Weather Underground